createdAt,value
2022-11-05T00:00:04.080Z,11.97
2022-11-05T00:02:54.532Z,11.36
2022-11-05T00:05:45.012Z,11.52
2022-11-05T00:08:35.431Z,11.60
2022-11-05T00:11:09.772Z,11.69
2022-11-05T00:14:04.773Z,11.76
2022-11-05T00:16:47.750Z,11.73
2022-11-05T00:19:20.528Z,11.70
2022-11-05T00:22:10.587Z,11.72
2022-11-05T00:25:01.052Z,11.74
2022-11-05T00:27:34.739Z,11.81
2022-11-05T00:30:10.703Z,11.70
2022-11-05T00:32:43.777Z,11.79
2022-11-05T00:35:17.473Z,11.81
2022-11-05T00:39:41.369Z,11.81
2022-11-05T00:42:31.432Z,11.86
2022-11-05T00:45:04.913Z,11.77
2022-11-05T00:47:54.949Z,11.64
2022-11-05T00:50:28.352Z,11.68
2022-11-05T00:53:01.541Z,11.98
2022-11-05T00:55:39.063Z,11.86
2022-11-05T00:58:13.790Z,11.99
2022-11-05T01:00:50.497Z,11.97
2022-11-05T01:03:25.322Z,11.97
2022-11-05T01:06:00.053Z,11.83
2022-11-05T01:08:32.845Z,11.99
2022-11-05T01:11:12.993Z,12.05
2022-11-05T01:13:45.773Z,12.02
2022-11-05T01:16:18.656Z,12.03
2022-11-05T01:18:51.443Z,11.72
2022-11-05T01:21:24.303Z,12.13
2022-11-05T01:23:57.171Z,12.10
2022-11-05T01:26:31.590Z,12.23
2022-11-05T01:29:04.470Z,12.12
2022-11-05T01:31:37.396Z,12.29
2022-11-05T01:34:10.324Z,12.23
2022-11-05T01:36:43.183Z,12.22
2022-11-05T01:39:16.126Z,12.18
2022-11-05T01:41:50.339Z,12.21
2022-11-05T01:45:03.725Z,12.21
2022-11-05T01:47:43.304Z,11.94
2022-11-05T01:50:27.184Z,12.30
2022-11-05T01:53:06.203Z,12.01
2022-11-05T01:55:43.554Z,12.20
2022-11-05T01:58:22.518Z,12.24
2022-11-05T02:00:56.308Z,12.23
2022-11-05T02:03:30.137Z,12.20
2022-11-05T02:06:04.803Z,12.16
2022-11-05T02:08:56.038Z,12.18
2022-11-05T02:11:29.054Z,12.15
2022-11-05T02:14:03.275Z,12.04
2022-11-05T02:16:41.383Z,11.99
2022-11-05T02:19:40.209Z,12.07
2022-11-05T02:22:55.247Z,11.97
2022-11-05T02:25:55.740Z,11.98
2022-11-05T02:28:50.996Z,12.02
2022-11-05T02:31:35.311Z,11.97
2022-11-05T02:34:17.442Z,11.95
2022-11-05T02:36:57.327Z,11.95
2022-11-05T02:39:47.383Z,12.04
2022-11-05T02:42:33.378Z,11.88
2022-11-05T02:45:15.614Z,12.01
2022-11-05T02:47:57.352Z,11.94
2022-11-05T02:50:36.075Z,12.00
2022-11-05T02:53:15.823Z,12.13
2022-11-05T02:55:55.612Z,11.94
2022-11-05T02:58:29.423Z,12.02
2022-11-05T03:01:06.817Z,11.97
2022-11-05T03:03:44.157Z,12.01
2022-11-05T03:06:31.270Z,11.80
2022-11-05T03:09:33.373Z,11.76
2022-11-05T03:12:14.111Z,11.75
2022-11-05T03:14:57.141Z,11.88
2022-11-05T03:17:37.568Z,11.90
2022-11-05T03:20:20.587Z,11.91
2022-11-05T03:22:59.752Z,11.55
2022-11-05T03:25:38.263Z,11.64
2022-11-05T03:28:13.464Z,11.59
2022-11-05T03:30:47.000Z,11.53
2022-11-05T03:33:23.390Z,11.70
2022-11-05T03:36:01.886Z,11.56
2022-11-05T03:38:38.623Z,11.52
2022-11-05T03:41:14.969Z,11.73
2022-11-05T03:43:51.519Z,11.77
2022-11-05T03:46:30.261Z,11.92
2022-11-05T03:49:05.407Z,11.98
2022-11-05T03:51:44.245Z,11.73
2022-11-05T03:54:17.300Z,11.98
2022-11-05T03:57:01.994Z,12.04
2022-11-05T03:59:41.592Z,11.82
2022-11-05T04:02:16.868Z,11.90
2022-11-05T04:04:50.028Z,11.85
2022-11-05T04:07:41.972Z,11.91
2022-11-05T04:10:32.313Z,12.00
2022-11-05T04:13:22.644Z,12.05
2022-11-05T04:16:14.461Z,11.85
2022-11-05T04:18:47.315Z,11.88
2022-11-05T04:21:37.968Z,12.05
2022-11-05T04:24:12.852Z,11.98
2022-11-05T04:26:46.035Z,12.06
2022-11-05T04:29:35.857Z,12.08
2022-11-05T04:32:08.648Z,12.01
2022-11-05T04:34:41.472Z,12.18
2022-11-05T04:37:14.265Z,12.16
2022-11-05T04:39:48.505Z,11.89
2022-11-05T04:42:21.364Z,12.05
2022-11-05T04:44:54.516Z,12.23
2022-11-05T04:47:27.446Z,12.10
2022-11-05T04:50:00.334Z,12.33
2022-11-05T04:52:33.173Z,12.02
2022-11-05T04:55:08.466Z,12.10
2022-11-05T04:57:41.428Z,12.28
2022-11-05T05:00:15.306Z,12.34
2022-11-05T05:02:48.821Z,12.14
2022-11-05T05:05:23.099Z,12.14
2022-11-05T05:07:55.901Z,12.10
2022-11-05T05:10:30.123Z,12.01
2022-11-05T05:13:02.895Z,12.23
2022-11-05T05:15:35.702Z,12.08
2022-11-05T05:18:10.263Z,12.27
2022-11-05T05:21:00.516Z,12.39
2022-11-05T05:23:33.357Z,12.38
2022-11-05T05:26:07.755Z,12.37
2022-11-05T05:28:40.599Z,12.21
2022-11-05T05:31:13.526Z,12.35
2022-11-05T05:33:46.452Z,12.28
2022-11-05T05:36:19.505Z,12.35
2022-11-05T05:38:52.493Z,12.36
2022-11-05T05:41:26.768Z,12.45
2022-11-05T05:43:59.706Z,12.48
2022-11-05T05:46:32.650Z,12.48
2022-11-05T05:49:09.582Z,12.52
2022-11-05T05:51:45.017Z,12.45
2022-11-05T05:54:18.281Z,12.44
2022-11-05T05:56:52.513Z,12.34
2022-11-05T05:59:25.314Z,12.35
2022-11-05T06:01:58.320Z,12.37
2022-11-05T06:04:31.184Z,12.28
2022-11-05T06:07:03.974Z,12.58
2022-11-05T06:09:36.811Z,12.56
2022-11-05T06:12:11.011Z,12.29
2022-11-05T06:14:43.807Z,12.51
2022-11-05T06:17:16.688Z,12.54
2022-11-05T06:19:59.838Z,12.48
2022-11-05T06:22:32.651Z,12.65
2022-11-05T06:25:06.626Z,12.38
2022-11-05T06:27:39.579Z,12.36
2022-11-05T06:30:13.087Z,12.48
2022-11-05T06:32:46.026Z,12.34
2022-11-05T06:35:20.486Z,12.37
2022-11-05T06:37:53.435Z,12.56
2022-11-05T06:40:26.382Z,12.41
2022-11-05T06:42:59.339Z,12.34
2022-11-05T06:45:32.295Z,12.41
2022-11-05T06:48:05.890Z,12.47
2022-11-05T06:50:40.224Z,12.21
2022-11-05T06:53:13.910Z,12.36
2022-11-05T06:55:47.919Z,12.20
2022-11-05T06:58:20.806Z,12.05
2022-11-05T07:00:53.612Z,12.23
2022-11-05T07:03:27.471Z,12.15
2022-11-05T07:06:02.152Z,12.20
2022-11-05T07:08:37.277Z,12.08
2022-11-05T07:11:10.182Z,12.10
2022-11-05T07:13:43.070Z,12.29
2022-11-05T07:16:16.284Z,12.39
2022-11-05T07:18:49.802Z,12.23
2022-11-05T07:21:24.185Z,12.18
2022-11-05T07:23:57.855Z,12.07
2022-11-05T07:26:34.505Z,12.11
2022-11-05T07:29:08.440Z,12.37
2022-11-05T07:31:42.148Z,12.39
2022-11-05T07:34:16.214Z,12.43
2022-11-05T07:36:51.259Z,12.43
2022-11-05T07:39:24.128Z,12.68
2022-11-05T07:41:58.027Z,12.55
2022-11-05T07:44:32.146Z,12.60
2022-11-05T07:47:06.241Z,12.66
2022-11-05T07:49:40.216Z,12.64
2022-11-05T07:52:15.295Z,12.73
2022-11-05T07:54:49.337Z,12.69
2022-11-05T07:57:22.975Z,12.67
2022-11-05T07:59:56.825Z,12.82
2022-11-05T08:02:30.651Z,12.84
2022-11-05T08:05:04.514Z,12.66
2022-11-05T08:07:38.752Z,12.63
2022-11-05T08:10:12.480Z,12.83
2022-11-05T08:12:45.300Z,12.80
2022-11-05T08:15:19.549Z,12.77
2022-11-05T08:18:00.097Z,12.85
2022-11-05T08:20:34.380Z,12.94
2022-11-05T08:23:10.281Z,12.54
2022-11-05T08:25:43.427Z,12.72
2022-11-05T08:28:17.129Z,12.72
2022-11-05T08:30:51.804Z,12.74
2022-11-05T08:33:27.704Z,12.80
2022-11-05T08:36:05.187Z,12.87
2022-11-05T08:38:40.221Z,12.70
2022-11-05T08:41:13.952Z,13.02
2022-11-05T08:43:46.801Z,12.89
2022-11-05T08:46:20.640Z,12.97
2022-11-05T08:48:54.204Z,12.83
2022-11-05T08:51:28.041Z,13.02
2022-11-05T08:54:03.031Z,12.90
2022-11-05T08:56:36.546Z,12.95
2022-11-05T08:59:10.365Z,12.88
2022-11-05T09:01:44.327Z,12.90
2022-11-05T09:04:18.280Z,12.97
2022-11-05T09:06:51.365Z,12.91
2022-11-05T09:09:25.793Z,12.95
2022-11-05T09:12:12.422Z,13.06
2022-11-05T09:14:46.579Z,13.09
2022-11-05T09:17:22.329Z,13.04
2022-11-05T09:19:55.173Z,12.94
2022-11-05T09:22:28.905Z,13.21
2022-11-05T09:25:03.114Z,13.03
2022-11-05T09:27:37.376Z,13.07
2022-11-05T09:30:13.310Z,13.13
2022-11-05T09:32:47.335Z,13.03
2022-11-05T09:35:20.974Z,13.27
2022-11-05T09:37:59.709Z,13.52
2022-11-05T09:40:43.254Z,13.56
2022-11-05T09:43:20.444Z,13.74
2022-11-05T09:45:59.925Z,13.86
2022-11-05T09:48:35.237Z,13.63
2022-11-05T09:51:10.230Z,13.75
2022-11-05T09:53:46.045Z,13.70
2022-11-05T09:56:28.195Z,13.73
2022-11-05T09:59:04.883Z,13.61
2022-11-05T10:01:39.320Z,13.75
2022-11-05T10:04:21.173Z,13.86
2022-11-05T10:07:00.023Z,13.82
2022-11-05T10:09:38.955Z,14.03
2022-11-05T10:12:18.176Z,14.00
2022-11-05T10:15:00.052Z,14.22
2022-11-05T10:17:39.062Z,14.44
2022-11-05T10:20:23.713Z,14.57
2022-11-05T10:23:00.236Z,14.66
2022-11-05T10:25:38.466Z,14.62
2022-11-05T10:28:18.263Z,15.25
2022-11-05T10:30:54.167Z,15.19
2022-11-05T10:33:33.960Z,15.36
2022-11-05T10:36:11.339Z,15.27
2022-11-05T10:38:45.753Z,15.07
2022-11-05T10:41:35.559Z,15.12
2022-11-05T10:44:28.468Z,15.06
2022-11-05T10:47:19.728Z,14.75
2022-11-05T10:49:59.999Z,14.70
2022-11-05T10:52:37.523Z,14.24
2022-11-05T10:55:19.965Z,14.47
2022-11-05T10:57:53.920Z,14.54
2022-11-05T11:00:30.067Z,14.54
2022-11-05T11:03:06.069Z,14.35
2022-11-05T11:05:41.359Z,14.26
2022-11-05T11:08:25.577Z,14.23
2022-11-05T11:11:00.100Z,14.50
2022-11-05T11:13:50.759Z,14.35
2022-11-05T11:16:27.568Z,14.27
2022-11-05T11:19:03.588Z,14.39
2022-11-05T11:21:39.282Z,14.40
2022-11-05T11:24:23.570Z,14.33
2022-11-05T11:27:02.993Z,14.34
2022-11-05T11:29:43.892Z,14.24
2022-11-05T11:32:23.299Z,14.39
2022-11-05T11:34:58.505Z,14.50
2022-11-05T11:37:37.482Z,14.60
2022-11-05T11:40:19.029Z,14.54
2022-11-05T11:42:56.712Z,14.58
2022-11-05T11:45:34.755Z,14.58
2022-11-05T11:48:16.835Z,14.39
2022-11-05T11:50:51.177Z,14.53
2022-11-05T11:53:37.040Z,14.43
2022-11-05T11:56:18.158Z,14.36
2022-11-05T11:58:52.879Z,14.51
2022-11-05T12:01:51.499Z,14.71
2022-11-05T12:05:03.806Z,14.54
2022-11-05T12:07:49.169Z,14.53
2022-11-05T12:10:49.166Z,14.40
2022-11-05T12:14:02.578Z,14.41
2022-11-05T12:17:11.402Z,14.67
2022-11-05T12:20:10.297Z,14.64
2022-11-05T12:23:08.830Z,14.62
2022-11-05T12:25:51.633Z,14.78
2022-11-05T12:29:12.260Z,14.65
2022-11-05T12:31:50.728Z,14.74
2022-11-05T12:34:39.090Z,14.82
2022-11-05T12:37:27.951Z,15.04
2022-11-05T12:40:44.037Z,15.13
2022-11-05T12:43:31.445Z,14.96
2022-11-05T12:46:20.096Z,14.93
2022-11-05T12:49:18.978Z,14.87
2022-11-05T12:52:07.283Z,15.06
2022-11-05T12:55:01.133Z,14.92
2022-11-05T12:57:39.079Z,15.34
2022-11-05T13:00:19.637Z,15.45
2022-11-05T13:02:57.847Z,15.32
2022-11-05T13:05:38.180Z,15.42
2022-11-05T13:08:17.498Z,15.31
2022-11-05T13:10:56.651Z,15.54
2022-11-05T13:13:38.233Z,15.40
2022-11-05T13:16:20.787Z,15.32
2022-11-05T13:18:58.371Z,15.16
2022-11-05T13:21:32.928Z,15.05
2022-11-05T13:24:12.879Z,14.96
2022-11-05T13:26:53.828Z,15.43
2022-11-05T13:29:34.383Z,15.72
2022-11-05T13:32:27.472Z,15.64
2022-11-05T13:35:04.442Z,15.75
2022-11-05T13:37:56.069Z,15.74
2022-11-05T13:40:41.753Z,15.67
2022-11-05T13:43:43.569Z,15.71
2022-11-05T13:46:30.589Z,16.01
2022-11-05T13:49:27.265Z,15.89
2022-11-05T13:52:20.152Z,16.00
2022-11-05T13:55:26.234Z,16.05
2022-11-05T13:58:15.547Z,16.21
2022-11-05T14:01:07.277Z,16.17
2022-11-05T14:03:46.706Z,16.07
2022-11-05T14:06:26.729Z,16.05
2022-11-05T14:09:03.980Z,15.82
2022-11-05T14:11:42.229Z,15.94
2022-11-05T14:14:21.204Z,15.93
2022-11-05T14:17:14.596Z,15.67
2022-11-05T14:20:06.907Z,15.89
2022-11-05T14:22:43.476Z,15.92
2022-11-05T14:25:49.835Z,15.86
2022-11-05T14:28:45.613Z,15.62
2022-11-05T14:31:54.476Z,15.71
2022-11-05T14:34:46.526Z,15.67
2022-11-05T14:37:41.733Z,15.60
2022-11-05T14:40:32.294Z,15.26
2022-11-05T14:43:09.574Z,15.32
2022-11-05T14:45:55.903Z,15.29
2022-11-05T14:48:39.004Z,15.42
2022-11-05T14:51:28.213Z,15.09
2022-11-05T14:54:05.145Z,15.20
2022-11-05T14:56:46.158Z,15.12
2022-11-05T14:59:53.179Z,15.06
2022-11-05T15:02:29.528Z,15.20
2022-11-05T15:05:41.136Z,15.17
2022-11-05T15:08:37.485Z,15.05
2022-11-05T15:11:16.045Z,15.20
2022-11-05T15:14:02.698Z,15.08
2022-11-05T15:16:41.496Z,15.28
2022-11-05T15:19:21.498Z,14.92
2022-11-05T15:21:57.739Z,15.05
2022-11-05T15:24:33.436Z,15.24
2022-11-05T15:27:15.527Z,15.12
2022-11-05T15:29:49.699Z,15.26
2022-11-05T15:32:26.682Z,15.09
2022-11-05T15:34:59.672Z,15.38
2022-11-05T15:37:32.609Z,15.31
2022-11-05T15:40:24.702Z,15.35
2022-11-05T15:43:21.062Z,15.47
2022-11-05T15:46:02.646Z,15.32
2022-11-05T15:48:36.982Z,15.33
2022-11-05T15:51:11.785Z,14.81
2022-11-05T15:54:30.661Z,14.43
2022-11-05T15:56:57.233Z,14.35
2022-11-05T15:59:31.321Z,13.97
2022-11-05T16:02:31.246Z,13.78
2022-11-05T16:05:11.494Z,13.54
2022-11-05T16:07:46.081Z,13.71
2022-11-05T16:10:21.478Z,13.87
2022-11-05T16:12:55.908Z,13.52
2022-11-05T16:15:33.074Z,13.43
2022-11-05T16:18:24.010Z,13.83
2022-11-05T16:21:09.068Z,13.83
2022-11-05T16:23:45.919Z,13.95
2022-11-05T16:29:36.486Z,14.07
2022-11-05T16:32:17.995Z,14.18
2022-11-05T16:34:53.883Z,14.33
2022-11-05T16:37:28.929Z,14.30
2022-11-05T16:40:03.666Z,14.28
2022-11-05T16:42:40.098Z,14.20
2022-11-05T16:45:17.698Z,14.16
2022-11-05T16:47:51.466Z,14.05
2022-11-05T16:50:27.257Z,13.88
2022-11-05T16:53:01.217Z,13.73
2022-11-05T16:55:35.763Z,13.61
2022-11-05T16:58:19.576Z,13.76
2022-11-05T17:00:58.770Z,13.80
2022-11-05T17:03:31.910Z,13.79
2022-11-05T17:06:06.478Z,13.66
2022-11-05T17:08:39.799Z,13.61
2022-11-05T17:11:15.704Z,13.57
2022-11-05T17:13:49.363Z,13.67
2022-11-05T17:16:23.652Z,13.77
2022-11-05T17:18:57.267Z,13.82
2022-11-05T17:21:30.940Z,13.66
2022-11-05T17:24:04.621Z,13.75
2022-11-05T17:26:38.237Z,13.83
2022-11-05T17:29:11.719Z,13.91
2022-11-05T17:31:46.731Z,13.90
2022-11-05T17:34:19.636Z,13.96
2022-11-05T17:36:52.571Z,14.02
2022-11-05T17:39:31.359Z,13.97
2022-11-05T17:42:04.730Z,14.04
2022-11-05T17:44:37.904Z,14.03
2022-11-05T17:47:13.039Z,13.91
2022-11-05T17:49:47.434Z,14.00
2022-11-05T17:52:21.093Z,13.86
2022-11-05T17:54:54.766Z,13.75
2022-11-05T17:57:29.506Z,13.74
2022-11-05T18:00:03.151Z,13.79
2022-11-05T18:02:38.884Z,13.62
2022-11-05T18:05:13.590Z,13.32
2022-11-05T18:07:48.188Z,13.20
2022-11-05T18:10:21.911Z,13.20
2022-11-05T18:12:55.626Z,13.31
2022-11-05T18:15:29.171Z,13.34
2022-11-05T18:18:04.282Z,13.19
2022-11-05T18:20:39.313Z,13.18
2022-11-05T18:23:13.607Z,13.08
2022-11-05T18:25:47.397Z,13.14
2022-11-05T18:28:21.007Z,13.03
2022-11-05T18:30:54.782Z,12.87
2022-11-05T18:33:30.028Z,12.93
2022-11-05T18:36:03.777Z,12.97
2022-11-05T18:38:37.488Z,12.87
2022-11-05T18:41:11.089Z,12.78
2022-11-05T18:43:44.430Z,12.69
2022-11-05T18:46:43.156Z,12.60
2022-11-05T18:49:13.650Z,12.40
2022-11-05T18:51:46.606Z,12.36
2022-11-05T18:54:19.856Z,12.33
2022-11-05T18:56:52.799Z,12.44
2022-11-05T18:59:41.194Z,12.57
2022-11-05T19:02:15.710Z,12.57
2022-11-05T19:05:22.088Z,12.59
2022-11-05T19:07:42.896Z,12.59
2022-11-05T19:10:16.053Z,12.36
2022-11-05T19:12:48.886Z,12.35
2022-11-05T19:15:22.580Z,12.33
2022-11-05T19:17:56.150Z,12.22
2022-11-05T19:20:35.106Z,12.11
2022-11-05T19:23:10.973Z,12.02
2022-11-05T19:25:46.123Z,11.97
2022-11-05T19:28:19.656Z,12.14
2022-11-05T19:30:53.704Z,11.94
2022-11-05T19:33:27.998Z,11.91
2022-11-05T19:36:07.270Z,12.20
2022-11-05T19:38:41.479Z,12.14
2022-11-05T19:41:15.576Z,12.07
2022-11-05T19:43:50.312Z,12.02
2022-11-05T19:46:25.152Z,11.92
2022-11-05T19:48:59.204Z,12.05
2022-11-05T19:51:34.748Z,11.97
2022-11-05T19:54:08.734Z,11.99
2022-11-05T19:56:42.082Z,12.09
2022-11-05T19:59:15.686Z,12.12
2022-11-05T20:01:49.520Z,12.08
2022-11-05T20:04:22.459Z,11.98
2022-11-05T20:06:57.597Z,11.87
2022-11-05T20:09:31.168Z,11.75
2022-11-05T20:12:04.561Z,11.71
2022-11-05T20:14:38.462Z,11.42
2022-11-05T20:17:12.136Z,11.61
2022-11-05T20:19:45.685Z,11.48
2022-11-05T20:22:21.150Z,11.56
2022-11-05T20:24:54.821Z,11.45
2022-11-05T20:27:28.686Z,11.47
2022-11-05T20:30:02.208Z,11.55
2022-11-05T20:32:36.063Z,11.45
2022-11-05T20:35:10.027Z,11.32
2022-11-05T20:37:45.049Z,11.26
2022-11-05T20:40:21.030Z,11.33
2022-11-05T20:42:53.909Z,11.26
2022-11-05T20:45:27.584Z,11.31
2022-11-05T20:48:00.526Z,11.43
2022-11-05T20:50:34.053Z,11.47
2022-11-05T20:53:09.197Z,11.30
2022-11-05T20:55:44.488Z,11.40
2022-11-05T20:58:19.244Z,11.28
2022-11-05T21:00:55.422Z,11.11
2022-11-05T21:03:28.307Z,11.05
2022-11-05T21:06:05.927Z,10.99
2022-11-05T21:08:41.407Z,10.95
2022-11-05T21:11:15.214Z,10.87
2022-11-05T21:13:49.610Z,10.97
2022-11-05T21:16:23.611Z,11.09
2022-11-05T21:18:57.014Z,11.18
2022-11-05T21:21:29.943Z,11.11
2022-11-05T21:24:04.153Z,11.06
2022-11-05T21:26:37.644Z,11.03
2022-11-05T21:29:10.758Z,10.91
2022-11-05T21:31:43.904Z,10.93
2022-11-05T21:34:17.984Z,10.77
2022-11-05T21:36:51.585Z,10.69
2022-11-05T21:39:28.043Z,10.76
2022-11-05T21:42:01.985Z,10.83
2022-11-05T21:44:35.716Z,10.78
2022-11-05T21:47:09.804Z,10.71
2022-11-05T21:49:43.676Z,10.68
2022-11-05T21:52:36.431Z,10.67
2022-11-05T21:55:31.336Z,10.63
2022-11-05T21:58:45.127Z,10.64
2022-11-05T22:01:18.194Z,10.58
2022-11-05T22:03:51.861Z,10.54
2022-11-05T22:06:25.508Z,10.49
2022-11-05T22:08:59.124Z,10.42
2022-11-05T22:11:37.104Z,10.34
2022-11-05T22:14:10.709Z,10.32
2022-11-05T22:16:43.933Z,10.28
2022-11-05T22:19:17.563Z,10.50
2022-11-05T22:21:51.451Z,10.67
2022-11-05T22:24:25.734Z,10.74
2022-11-05T22:27:01.313Z,10.74
2022-11-05T22:29:35.008Z,10.77
2022-11-05T22:32:08.857Z,10.71
2022-11-05T22:34:42.695Z,10.66
2022-11-05T22:37:16.690Z,10.62
2022-11-05T22:39:50.329Z,10.52
2022-11-05T22:42:24.977Z,10.42
2022-11-05T22:44:59.214Z,10.32
2022-11-05T22:47:32.977Z,10.22
2022-11-05T22:50:06.979Z,10.26
2022-11-05T22:52:40.601Z,10.24
2022-11-05T22:55:13.633Z,10.21
2022-11-05T22:57:48.567Z,10.16
2022-11-05T23:00:22.903Z,10.11
2022-11-05T23:02:56.068Z,10.09
2022-11-05T23:05:29.362Z,9.98
2022-11-05T23:08:19.761Z,9.95
2022-11-05T23:11:09.934Z,9.93
2022-11-05T23:13:44.137Z,9.94
2022-11-05T23:16:34.166Z,9.94
2022-11-05T23:19:24.657Z,9.85
2022-11-05T23:22:15.344Z,9.80
2022-11-05T23:24:49.319Z,9.80
2022-11-05T23:27:23.122Z,9.78
2022-11-05T23:30:00.767Z,9.78
2022-11-05T23:32:34.297Z,9.74
2022-11-05T23:35:08.148Z,9.73
2022-11-05T23:37:58.655Z,9.75
2022-11-05T23:40:54.546Z,9.70
2022-11-05T23:43:45.252Z,9.73
2022-11-05T23:46:37.641Z,9.81
2022-11-05T23:49:11.171Z,9.85
2022-11-05T23:51:44.817Z,9.82
2022-11-05T23:54:18.355Z,9.77
2022-11-05T23:56:51.236Z,9.77
2022-11-05T23:59:24.550Z,9.79
